Time;durP1;ratioP1;P1;durP2;ratioP2;P2;SDS_P1;SDS_P2;PMS_P1;PMS_P2;Temp;Humidity;BMP_temperature;BMP_pressure;BME280_temperature;BME280_humidity;BME280_pressure;Samples;Min_cycle;Max_cycle;Signal;HPM_P1;HPM_P2
2021/10/24 00:05:55;;;;;;;42.90;20.37;;;;;;;7.38;69.27;100997.84;30741869;28;20051;-74
2021/10/24 00:20:57;;;;;;;35.07;17.27;;;;;;;7.26;69.14;101006.25;30749045;28;20052;-73
2021/10/24 00:35:59;;;;;;;33.93;16.50;;;;;;;7.22;68.46;101000.81;30779587;28;20051;-73
2021/10/24 00:51:01;;;;;;;27.67;12.13;;;;;;;7.05;68.49;100996.84;30756426;28;20046;-73
2021/10/24 01:06:03;;;;;;;33.00;12.87;;;;;;;6.74;68.06;101026.97;30757271;28;20059;-73
2021/10/24 01:21:06;;;;;;;23.57;12.50;;;;;;;6.50;68.88;101029.03;30745972;28;20523;-72
2021/10/24 01:36:10;;;;;;;31.33;12.27;;;;;;;6.40;69.07;101040.47;30752544;28;20051;-74
2021/10/24 01:51:12;;;;;;;22.87;10.20;;;;;;;6.27;69.81;101031.06;30738651;28;20047;-73
2021/10/24 02:06:14;;;;;;;21.63;10.57;;;;;;;6.22;69.46;101020.59;30744848;28;20063;-73
2021/10/24 02:21:16;;;;;;;26.57;11.10;;;;;;;6.12;69.61;101026.63;30792254;28;20055;-73
2021/10/24 02:36:18;;;;;;;22.23;10.87;;;;;;;5.99;69.32;101033.38;30737909;28;20066;-73
2021/10/24 02:51:20;;;;;;;22.17;10.60;;;;;;;5.87;69.38;101041.66;30778803;28;20055;-74
2021/10/24 03:06:22;;;;;;;26.23;11.40;;;;;;;5.81;69.93;101041.19;30779495;28;20047;-74
2021/10/24 03:21:24;;;;;;;20.03;9.83;;;;;;;5.73;69.58;101036.81;30770791;28;20047;-73
2021/10/24 03:36:26;;;;;;;23.07;11.83;;;;;;;5.45;69.82;101047.94;30748093;28;20480;-74
2021/10/24 03:51:28;;;;;;;22.33;10.40;;;;;;;5.46;68.95;101049.47;30766520;28;20040;-73
2021/10/24 04:06:30;;;;;;;27.47;10.80;;;;;;;5.52;69.13;101058.81;30754991;28;20739;-73
2021/10/24 04:21:32;;;;;;;24.57;9.60;;;;;;;5.41;69.40;101079.44;30760474;28;20047;-73
2021/10/24 04:36:34;;;;;;;18.33;8.63;;;;;;;5.41;68.29;101084.81;30743751;28;20055;-73
2021/10/24 04:51:35;;;;;;;21.10;7.63;;;;;;;5.64;68.05;101099.06;30744696;28;20055;-74
2021/10/24 05:06:38;;;;;;;15.33;6.50;;;;;;;5.87;67.50;101130.59;30723367;28;20047;-73
2021/10/24 05:21:39;;;;;;;12.07;6.33;;;;;;;6.70;63.16;101134.09;30721553;28;20048;-74
2021/10/24 05:36:43;;;;;;;16.10;6.57;;;;;;;6.59;61.75;101152.09;30741303;28;20047;-74
2021/10/24 05:51:46;;;;;;;10.80;6.73;;;;;;;7.59;58.63;101170.16;30771573;28;20059;-73
2021/10/24 06:06:48;;;;;;;11.43;5.93;;;;;;;9.96;53.04;101181.38;30751189;28;20055;-75
2021/10/24 06:21:50;;;;;;;9.93;6.27;;;;;;;9.39;55.91;101183.28;30737915;28;20059;-75
2021/10/24 06:36:52;;;;;;;15.20;6.97;;;;;;;9.44;57.42;101210.00;30751530;28;20047;-73
2021/10/24 06:51:54;;;;;;;23.90;10.67;;;;;;;10.31;55.93;101202.34;30722705;28;20065;-74
2021/10/24 07:06:56;;;;;;;14.93;6.20;;;;;;;10.24;54.80;101210.50;30741753;28;20077;-74
2021/10/24 07:21:58;;;;;;;12.90;6.33;;;;;;;9.81;54.77;101237.56;30741580;28;20052;-76
2021/10/24 07:36:59;;;;;;;9.60;5.17;;;;;;;9.97;55.14;101231.00;30767039;28;20058;-73
2021/10/24 07:52:02;;;;;;;11.10;5.70;;;;;;;10.90;52.10;101202.59;30764147;28;20067;-73
2021/10/24 08:07:05;;;;;;;14.37;6.93;;;;;;;11.02;52.15;101202.16;30768160;28;20062;-73
2021/10/24 08:22:07;;;;;;;11.23;6.53;;;;;;;11.12;52.61;101192.41;30789733;28;20470;-73
2021/10/24 08:37:11;;;;;;;15.17;7.07;;;;;;;11.71;51.36;101187.03;30762259;28;20045;-72
2021/10/24 08:52:15;;;;;;;15.57;7.53;;;;;;;12.74;48.49;101177.94;30762942;28;20054;-74
2021/10/24 09:07:18;;;;;;;9.73;6.10;;;;;;;15.06;41.98;101162.91;30744091;28;20051;-75
2021/10/24 09:22:35;;;;;;;11.73;5.07;;;;;;;16.00;37.35;101146.66;30762056;28;20047;-74
2021/10/24 09:37:44;;;;;;;8.75;4.32;;;;;;;16.68;35.39;101135.44;30787372;28;20069;-80
2021/10/24 09:52:46;;;;;;;10.55;3.50;;;;;;;18.24;31.04;101134.47;30739421;28;20055;-73
2021/10/24 10:07:49;;;;;;;2.80;2.00;;;;;;;18.24;30.12;101112.47;30739226;28;20055;-79
2021/10/24 10:23:08;;;;;;;10.40;2.40;;;;;;;16.70;30.22;101116.59;30731915;28;20113;-78
2021/10/24 10:38:34;;;;;;;6.70;3.60;;;;;;;15.71;32.02;101102.03;30774883;28;20051;-79
2021/10/24 10:53:49;;;;;;;7.17;3.70;;;;;;;13.93;34.93;101103.78;30742359;28;20098;-78
2021/10/24 11:08:53;;;;;;;6.97;3.00;;;;;;;13.65;34.23;101109.72;30767172;28;20055;-78
2021/10/24 11:23:56;;;;;;;6.80;2.50;;;;;;;13.04;37.33;101106.31;30813041;28;20454;-77
2021/10/24 11:39:03;;;;;;;3.90;2.23;;;;;;;13.59;35.83;101114.09;30761051;28;20122;-77
2021/10/24 11:54:08;;;;;;;4.97;2.33;;;;;;;13.59;33.74;101125.78;30772962;28;20069;-78
2021/10/24 12:09:13;;;;;;;5.43;3.00;;;;;;;12.59;34.83;101126.34;30756146;28;20146;-77
2021/10/24 12:24:19;;;;;;;6.43;1.92;;;;;;;12.43;35.11;101139.75;30788222;28;20059;-77
2021/10/24 12:39:23;;;;;;;8.03;2.90;;;;;;;12.28;36.69;101144.56;30769169;28;20061;-78
2021/10/24 12:54:30;;;;;;;7.80;3.67;;;;;;;11.77;40.87;101167.19;30799559;28;20133;-79
2021/10/24 13:09:32;;;;;;;8.50;4.30;;;;;;;11.48;42.47;101184.84;30778454;28;20081;-78
2021/10/24 13:24:38;;;;;;;13.80;4.80;;;;;;;11.29;43.09;101194.28;30805056;28;20138;-77
2021/10/24 13:39:39;;;;;;;9.63;5.03;;;;;;;11.06;44.42;101219.25;30764094;28;20090;-77
2021/10/24 13:54:41;;;;;;;16.67;6.03;;;;;;;10.86;46.98;101232.50;30808658;28;20054;-77
2021/10/24 14:09:43;;;;;;;13.80;7.00;;;;;;;10.70;47.69;101256.56;30796306;28;20507;-78
2021/10/24 14:24:45;;;;;;;18.53;7.87;;;;;;;10.48;48.63;101271.34;30792011;28;20059;-77
2021/10/24 14:39:47;;;;;;;25.20;13.40;;;;;;;10.08;50.65;101281.41;30762730;28;20051;-78
2021/10/24 14:54:49;;;;;;;22.73;12.10;;;;;;;9.81;52.54;101294.53;30755609;28;20051;-77
2021/10/24 15:09:51;;;;;;;18.40;10.83;;;;;;;9.65;53.47;101307.66;30734369;28;20142;-79
2021/10/24 15:25:08;;;;;;;20.27;10.17;;;;;;;9.61;52.41;101338.63;30733943;28;20051;-78
2021/10/24 15:40:12;;;;;;;19.20;9.40;;;;;;;9.54;52.01;101350.19;30763965;28;20142;-77
2021/10/24 15:55:14;;;;;;;15.00;7.83;;;;;;;9.46;52.77;101375.72;30775691;28;20472;-75
2021/10/24 16:10:16;;;;;;;20.00;9.70;;;;;;;9.43;53.31;101387.34;30765158;28;20063;-81
2021/10/24 16:25:18;;;;;;;15.73;8.40;;;;;;;9.26;54.61;101404.25;30772674;28;20059;-79
2021/10/24 16:40:21;;;;;;;13.67;6.97;;;;;;;9.10;54.89;101405.31;30777985;28;20452;-81
2021/10/24 16:55:27;;;;;;;13.53;7.07;;;;;;;9.06;55.10;101406.44;30774270;28;20081;-80
2021/10/24 17:10:37;;;;;;;24.00;10.40;;;;;;;9.03;55.64;101413.38;30755031;28;20050;-81
2021/10/24 17:25:40;;;;;;;16.73;8.37;;;;;;;8.97;56.46;101409.50;30784794;28;20069;-81
2021/10/24 17:40:43;;;;;;;14.67;8.20;;;;;;;8.90;57.00;101409.41;30765263;28;20051;-80
2021/10/24 17:55:45;;;;;;;14.93;7.10;;;;;;;8.80;57.54;101420.94;30758314;28;20078;-83
2021/10/24 18:10:48;;;;;;;15.63;7.53;;;;;;;8.72;58.26;101432.88;30755742;28;20062;-79
2021/10/24 18:25:50;;;;;;;22.90;11.10;;;;;;;8.60;60.05;101430.41;30765136;28;20153;-82
2021/10/24 18:40:52;;;;;;;13.03;7.50;;;;;;;8.50;61.65;101442.72;30778243;28;20055;-82
2021/10/24 18:55:55;;;;;;;12.97;7.70;;;;;;;8.47;62.16;101446.16;30764994;29;20082;-82
2021/10/24 19:11:00;;;;;;;12.43;7.17;;;;;;;8.45;62.31;101461.97;30761456;28;20063;-81
2021/10/24 19:26:03;;;;;;;11.10;6.50;;;;;;;8.40;62.70;101473.91;30779644;28;20083;-84
2021/10/24 19:41:05;;;;;;;13.33;6.37;;;;;;;8.35;63.06;101473.47;30844950;28;20051;-84
2021/10/24 19:56:16;;;;;;;9.13;5.53;;;;;;;8.38;63.28;101464.59;30795662;28;20427;-83
2021/10/24 20:11:20;;;;;;;11.53;5.77;;;;;;;8.29;63.83;101478.38;30795113;28;20054;-84
2021/10/24 20:26:22;;;;;;;8.00;4.73;;;;;;;8.23;64.02;101482.59;30806986;28;20088;-82
2021/10/24 20:41:25;;;;;;;8.23;5.30;;;;;;;8.17;63.97;101476.72;30783647;28;20051;-83
2021/10/24 20:56:26;;;;;;;12.50;6.40;;;;;;;8.20;63.90;101491.44;30804966;28;20061;-78
2021/10/24 21:11:28;;;;;;;12.30;6.97;;;;;;;8.17;62.91;101497.56;30778692;28;20055;-79
2021/10/24 21:26:30;;;;;;;11.37;4.53;;;;;;;8.05;62.83;101495.09;30751731;28;20158;-77
2021/10/24 21:41:32;;;;;;;5.13;3.10;;;;;;;7.99;62.77;101512.81;30747466;28;20043;-77
2021/10/24 21:56:34;;;;;;;7.37;3.77;;;;;;;7.94;63.46;101505.78;30751287;28;20047;-76
2021/10/24 22:11:37;;;;;;;7.90;4.03;;;;;;;7.87;63.47;101527.31;30734617;28;20549;-77
2021/10/24 22:26:38;;;;;;;6.60;3.20;;;;;;;7.84;63.31;101534.22;30719153;28;20062;-77
2021/10/24 22:41:41;;;;;;;9.37;4.43;;;;;;;7.76;63.40;101542.59;30751497;28;20054;-76
2021/10/24 22:56:43;;;;;;;6.13;4.27;;;;;;;7.76;63.39;101567.72;30743756;28;20050;-76
2021/10/24 23:11:47;;;;;;;14.40;5.50;;;;;;;7.69;63.35;101578.41;30753923;28;20150;-77
2021/10/24 23:26:49;;;;;;;12.87;6.83;;;;;;;7.63;64.01;101596.06;30752994;28;20059;-77
2021/10/24 23:41:51;;;;;;;9.27;5.67;;;;;;;7.63;63.64;101604.19;30772028;28;20492;-77
2021/10/24 23:56:53;;;;;;;8.47;5.00;;;;;;;7.48;64.01;101599.69;30763526;28;20058;-76
